createdAt,value
2022-12-16T00:03:24.202Z,-0.3
2022-12-16T00:09:10.153Z,-0.3
2022-12-16T00:14:38.642Z,-0.1
2022-12-16T00:20:16.774Z,-0.1
2022-12-16T00:25:56.506Z,0
2022-12-16T00:31:38.964Z,0.1
2022-12-16T00:37:20.370Z,0.1
2022-12-16T00:42:58.421Z,0.1
2022-12-16T00:48:23.482Z,0.2
2022-12-16T00:53:31.665Z,0.2
2022-12-16T00:59:11.352Z,0.3
2022-12-16T01:04:35.709Z,0.3
2022-12-16T01:09:29.953Z,0.3
2022-12-16T01:14:54.701Z,0.3
2022-12-16T01:19:46.837Z,0.3
2022-12-16T01:24:53.673Z,0.3
2022-12-16T01:30:34.302Z,0.4
2022-12-16T01:36:42.564Z,0.4
2022-12-16T01:42:24.654Z,0.4
2022-12-16T01:48:04.430Z,0.4
2022-12-16T01:53:26.075Z,0.4
2022-12-16T01:58:48.053Z,0.4
2022-12-16T02:04:12.679Z,0.4
2022-12-16T02:09:33.747Z,0.5
2022-12-16T02:14:57.350Z,0.5
2022-12-16T02:20:04.564Z,0.5
2022-12-16T02:25:13.430Z,0.5
2022-12-16T02:30:24.528Z,0.5
2022-12-16T02:35:39.266Z,0.5
2022-12-16T02:40:47.332Z,0.5
2022-12-16T02:46:28.453Z,0.5
2022-12-16T02:52:07.240Z,0.4
2022-12-16T02:57:28.903Z,0.4
2022-12-16T03:02:51.483Z,0.4
2022-12-16T03:08:29.772Z,0.4
2022-12-16T03:13:52.111Z,0.3
2022-12-16T03:19:30.333Z,0.3
2022-12-16T03:25:10.882Z,0.3
2022-12-16T03:30:33.069Z,0.3
2022-12-16T03:36:11.406Z,0.2
2022-12-16T03:41:33.599Z,0.1
2022-12-16T03:46:56.338Z,0.1
2022-12-16T03:52:40.459Z,0.1
2022-12-16T03:58:24.911Z,0.1
2022-12-16T04:04:06.018Z,0
2022-12-16T04:09:47.076Z,0
2022-12-16T04:15:27.416Z,0
2022-12-16T04:21:07.293Z,0
2022-12-16T04:26:46.507Z,0
2022-12-16T04:32:25.091Z,-0.1
2022-12-16T04:38:03.341Z,-0.1
2022-12-16T04:43:42.591Z,-0.1
2022-12-16T04:49:09.268Z,-0.2
2022-12-16T04:54:46.758Z,-0.3
2022-12-16T04:59:52.427Z,-0.3
2022-12-16T05:05:16.759Z,-0.3
2022-12-16T05:10:56.831Z,-0.4
2022-12-16T05:16:34.990Z,-0.4
2022-12-16T05:22:17.990Z,-0.5
2022-12-16T05:27:45.110Z,-0.5
2022-12-16T05:33:26.543Z,-0.6
2022-12-16T05:38:49.074Z,-0.6
2022-12-16T05:44:29.229Z,-0.6
2022-12-16T05:50:11.533Z,-0.6
2022-12-16T05:55:34.428Z,-0.6
2022-12-16T06:01:12.396Z,-0.6
2022-12-16T06:06:38.394Z,-0.6
2022-12-16T06:12:00.623Z,-0.6
2022-12-16T06:17:38.611Z,-0.6
2022-12-16T06:23:18.807Z,-0.4
2022-12-16T06:29:02.108Z,-0.3
2022-12-16T06:34:28.974Z,-0.2
2022-12-16T06:40:09.765Z,-0.1
2022-12-16T06:45:51.336Z,0.1
2022-12-16T06:51:35.170Z,0.3
2022-12-16T06:57:13.201Z,0.6
2022-12-16T07:02:27.458Z,0.9
2022-12-16T07:08:09.366Z,1.3
2022-12-16T07:13:53.057Z,1.7
2022-12-16T07:19:35.357Z,2.4
2022-12-16T07:25:24.211Z,3.9
2022-12-16T07:31:07.815Z,6.8
2022-12-16T07:36:51.320Z,8.4
2022-12-16T07:42:31.209Z,8.8
2022-12-16T07:48:11.976Z,8.7
2022-12-16T07:53:51.853Z,8.6
2022-12-16T07:59:29.771Z,8.7
2022-12-16T08:53:13.349Z,53.5
2022-12-16T08:58:55.564Z,58.8
2022-12-16T09:04:21.483Z,63.7
2022-12-16T09:10:07.839Z,59.6
2022-12-16T09:15:48.364Z,45.3
2022-12-16T09:21:31.706Z,55
2022-12-16T09:27:11.762Z,63.3
2022-12-16T09:32:54.276Z,59.9
2022-12-16T09:38:41.538Z,54
2022-12-16T09:44:24.633Z,59.7
2022-12-16T09:50:04.872Z,62.1
2022-12-16T09:55:45.027Z,55.9
2022-12-16T10:01:09.524Z,57.3
2022-12-16T10:06:51.785Z,58.3
2022-12-16T10:12:36.009Z,59.1
2022-12-16T10:18:21.238Z,59.4
2022-12-16T10:23:52.787Z,59.8
2022-12-16T10:29:37.413Z,60.3
2022-12-16T10:35:04.503Z,60.6
2022-12-16T10:40:52.448Z,61.2
2022-12-16T10:46:32.295Z,62
2022-12-16T10:52:31.090Z,62.3
2022-12-16T10:57:54.695Z,62.8
2022-12-16T11:03:43.294Z,61.6
2022-12-16T11:09:22.530Z,60.3
2022-12-16T11:15:29.866Z,60.6
2022-12-16T11:21:11.349Z,61.2
2022-12-16T11:26:54.543Z,61
2022-12-16T11:32:35.572Z,61.5
2022-12-16T11:38:14.451Z,61.1
2022-12-16T11:44:02.169Z,60.9
2022-12-16T11:49:42.863Z,60.9
2022-12-16T11:55:55.766Z,60.6
2022-12-16T12:01:45.373Z,60.6
2022-12-16T12:07:13.887Z,64.1
2022-12-16T12:12:52.701Z,65.5
2022-12-16T12:18:36.479Z,66
2022-12-16T12:24:17.359Z,65.9
2022-12-16T12:30:01.384Z,65.9
2022-12-16T12:35:41.994Z,65.7
2022-12-16T12:41:09.188Z,56.9
2022-12-16T12:47:06.421Z,55.4
2022-12-16T12:52:29.934Z,55.3
2022-12-16T12:58:00.528Z,55.1
2022-12-16T13:03:46.248Z,55.9
2022-12-16T13:09:25.572Z,55.3
2022-12-16T13:15:08.029Z,53.6
2022-12-16T13:20:54.633Z,51.2
2022-12-16T13:26:19.520Z,48.8
2022-12-16T13:32:00.618Z,46.1
2022-12-16T13:37:47.510Z,43.4
2022-12-16T13:43:25.845Z,40.4
2022-12-16T13:49:04.832Z,38.2
2022-12-16T13:54:45.986Z,35.7
2022-12-16T14:00:34.758Z,33.3
2022-12-16T14:06:00.254Z,31.3
2022-12-16T14:11:41.090Z,29.2
2022-12-16T14:17:05.499Z,26.9
2022-12-16T14:22:43.723Z,24.8
2022-12-16T14:28:54.042Z,23.6
2022-12-16T14:34:32.722Z,22.6
2022-12-16T14:40:16.034Z,21.6
2022-12-16T14:45:38.565Z,20.5
2022-12-16T14:51:25.309Z,19.4
2022-12-16T14:57:04.433Z,18.4
2022-12-16T15:02:46.488Z,17.3
2022-12-16T15:08:21.726Z,16.5
2022-12-16T15:14:04.164Z,15.4
2022-12-16T15:19:42.939Z,14.3
2022-12-16T15:25:25.445Z,13.3
2022-12-16T15:31:08.891Z,12.6
2022-12-16T15:36:36.648Z,11.8
2022-12-16T15:42:04.399Z,11.3
2022-12-16T15:47:42.315Z,11
2022-12-16T15:53:25.078Z,10.8
2022-12-16T15:59:08.188Z,10.5
2022-12-16T16:04:37.551Z,10.3
2022-12-16T16:10:21.732Z,10.1
2022-12-16T16:16:08.208Z,10
2022-12-16T16:21:49.158Z,9.8
2022-12-16T16:27:15.949Z,9.6
2022-12-16T16:32:39.050Z,9.4
2022-12-16T16:37:46.017Z,9.2
2022-12-16T16:43:24.128Z,8.9
2022-12-16T16:48:53.228Z,8.8
2022-12-16T16:54:19.442Z,8.6
2022-12-16T17:00:02.134Z,8.4
2022-12-16T17:05:49.493Z,8.4
2022-12-16T17:11:34.435Z,8.1
2022-12-16T17:17:20.758Z,7.9
2022-12-16T17:23:03.794Z,7.7
2022-12-16T17:28:48.309Z,7.6
2022-12-16T17:34:30.597Z,7.4
2022-12-16T17:39:58.774Z,7.3
2022-12-16T17:45:22.840Z,7.1
2022-12-16T17:51:04.179Z,6.9
2022-12-16T17:56:58.127Z,6.8
2022-12-16T18:02:21.212Z,6.6
2022-12-16T18:07:47.351Z,6.4
2022-12-16T18:12:54.744Z,6.3
2022-12-16T18:18:33.554Z,6.2
2022-12-16T18:23:55.746Z,6.1
2022-12-16T18:29:05.481Z,6
2022-12-16T18:34:48.023Z,5.9
2022-12-16T18:40:28.524Z,5.8
2022-12-16T18:46:13.174Z,5.6
2022-12-16T18:51:25.718Z,5.5
2022-12-16T18:56:48.249Z,5.4
2022-12-16T19:02:59.553Z,5.3
2022-12-16T19:08:36.975Z,5.4
2022-12-16T19:24:58.247Z,5.1
2022-12-16T23:36:00.139Z,3.6
2022-12-16T23:41:26.282Z,3.5
2022-12-16T23:47:12.721Z,3.4
2022-12-16T23:52:37.097Z,3.3
2022-12-16T23:58:17.567Z,3.1
